Time;durP1;ratioP1;P1;durP2;ratioP2;P2;SDS_P1;SDS_P2;PMS_P1;PMS_P2;Temp;Humidity;BMP_temperature;BMP_pressure;BME280_temperature;BME280_humidity;BME280_pressure;Samples;Min_cycle;Max_cycle;Signal;HPM_P1;HPM_P2
2023/04/02 00:00:10;;;;;;;1.08;1.02;;;;;;;13.16;48.77;98575.25;4981925;28;20050;-77
2023/04/02 00:02:55;;;;;;;1.08;1.00;;;;;;;13.15;48.61;98581.56;4994848;28;20113;-77
2023/04/02 00:05:28;;;;;;;1.45;1.13;;;;;;;13.17;48.58;98583.00;4994625;28;20021;-77
2023/04/02 00:07:59;;;;;;;1.08;0.98;;;;;;;13.18;48.70;98591.75;4994795;28;20553;-77
2023/04/02 00:10:34;;;;;;;1.20;1.00;;;;;;;12.79;48.30;98530.13;4975871;28;20027;-77
2023/04/02 00:13:08;;;;;;;1.10;1.00;;;;;;;13.13;48.34;98591.56;4994471;28;20046;-77
2023/04/02 00:15:35;;;;;;;1.05;0.95;;;;;;;11.97;48.41;98427.91;4994328;28;20027;-77
2023/04/02 00:18:02;;;;;;;1.08;1.00;;;;;;;13.16;48.69;98604.41;4994483;28;20014;-77
2023/04/02 00:20:31;;;;;;;2.10;1.02;;;;;;;13.04;48.38;98589.19;4994394;28;20109;-77
2023/04/02 00:22:56;;;;;;;1.10;0.85;;;;;;;13.11;48.66;98613.00;4976992;28;20062;-77
2023/04/02 00:25:27;;;;;;;1.40;1.00;;;;;;;12.94;48.78;98582.78;4994300;28;20060;-78
2023/04/02 00:27:54;;;;;;;1.20;1.10;;;;;;;11.80;48.79;98402.97;4994216;28;20031;-77
2023/04/02 00:30:19;;;;;;;1.20;1.17;;;;;;;12.15;48.43;98456.28;4994428;28;20023;-78
2023/04/02 00:32:45;;;;;;;13.00;7.47;;;;;;;13.08;48.39;98591.41;4994246;28;20431;-78
2023/04/02 00:35:37;;;;;;;2.03;1.40;;;;;;;13.12;48.19;98608.50;4994199;28;20034;-77
2023/04/02 00:38:03;;;;;;;1.00;0.90;;;;;;;13.11;48.32;98606.88;4991529;28;20092;-77
2023/04/02 00:40:30;;;;;;;1.20;1.00;;;;;;;12.94;48.03;98575.63;5008940;28;20033;-77
2023/04/02 00:42:58;;;;;;;1.65;1.20;;;;;;;12.97;48.36;98577.84;4994218;28;20022;-77
2023/04/02 00:45:34;;;;;;;1.70;0.98;;;;;;;12.94;48.02;98570.34;4994256;28;20026;-77
2023/04/02 00:48:28;;;;;;;1.13;1.02;;;;;;;12.95;48.23;98584.41;4993960;28;20041;-77
2023/04/02 00:50:54;;;;;;;3.65;2.00;;;;;;;12.52;48.03;98532.13;4993962;28;20026;-77
2023/04/02 00:53:30;;;;;;;3.67;1.80;;;;;;;13.00;47.92;98592.50;4993788;28;20022;-77
2023/04/02 00:55:58;;;;;;;2.33;1.70;;;;;;;13.07;47.79;98595.91;4993982;28;20026;-77
2023/04/02 00:58:35;;;;;;;2.15;1.50;;;;;;;12.96;47.79;98570.94;4993621;28;20029;-77
2023/04/02 01:01:01;;;;;;;1.38;1.25;;;;;;;12.23;47.84;98475.34;4993531;28;20046;-77
2023/04/02 01:03:34;;;;;;;1.30;1.20;;;;;;;13.09;47.92;98607.09;5008600;28;20510;-77
2023/04/02 01:06:15;;;;;;;1.27;1.17;;;;;;;13.10;47.74;98621.97;4976028;28;20026;-77
2023/04/02 01:09:08;;;;;;;4.72;3.30;;;;;;;13.04;47.72;98625.50;4993663;28;20037;-78
2023/04/02 01:12:10;;;;;;;1.80;1.50;;;;;;;13.01;48.20;98618.78;4993686;28;20026;-77
2023/04/02 01:14:39;;;;;;;1.40;1.30;;;;;;;13.01;48.33;98629.38;4992293;28;20033;-77
2023/04/02 01:17:17;;;;;;;1.20;1.10;;;;;;;12.97;47.78;98625.53;4993783;28;20459;-77
2023/04/02 01:20:06;;;;;;;1.98;1.10;;;;;;;12.90;47.95;98624.78;4993522;28;20037;-77
2023/04/02 01:23:04;;;;;;;1.13;1.02;;;;;;;12.83;48.44;98626.66;4993089;28;20030;-77
2023/04/02 01:25:50;;;;;;;1.20;1.10;;;;;;;11.60;48.00;98427.66;4983295;28;20042;-77
2023/04/02 01:28:21;;;;;;;1.25;0.90;;;;;;;12.83;47.98;98618.72;4993338;28;20018;-77
2023/04/02 01:30:54;;;;;;;1.38;1.25;;;;;;;12.52;48.10;98571.84;4976030;28;20026;-77
2023/04/02 01:33:28;;;;;;;1.23;1.15;;;;;;;12.84;48.33;98617.69;4992138;28;20015;-77
2023/04/02 01:36:10;;;;;;;1.70;1.13;;;;;;;12.67;47.68;98588.28;4993527;28;20152;-78
2023/04/02 01:38:47;;;;;;;1.05;0.95;;;;;;;12.14;47.95;98510.22;4993014;28;20057;-77
2023/04/02 01:41:35;;;;;;;0.90;0.90;;;;;;;12.57;47.98;98587.09;4993033;28;20022;-77
2023/04/02 01:44:06;;;;;;;1.30;0.93;;;;;;;12.02;47.63;98505.59;4992949;28;20483;-78
2023/04/02 01:46:34;;;;;;;0.95;0.93;;;;;;;12.83;47.94;98613.44;4992951;28;20173;-77
2023/04/02 01:49:08;;;;;;;14.15;8.65;;;;;;;12.89;47.73;98625.81;4991347;28;20037;-77
2023/04/02 01:51:35;;;;;;;6.07;3.40;;;;;;;12.63;47.79;98573.84;4992605;28;20447;-77
2023/04/02 01:54:03;;;;;;;5.18;2.75;;;;;;;12.05;47.50;98494.59;4991176;28;20487;-77
2023/04/02 01:56:29;;;;;;;2.28;1.70;;;;;;;11.72;47.86;98435.72;4992668;28;20018;-77
2023/04/02 01:59:00;;;;;;;1.70;1.60;;;;;;;12.31;47.71;98533.31;4992762;28;20022;-77
2023/04/02 02:01:35;;;;;;;1.48;1.38;;;;;;;12.92;47.35;98621.91;4992383;28;20149;-77
2023/04/02 02:04:01;;;;;;;2.55;1.60;;;;;;;12.95;47.63;98622.28;4992612;28;20026;-77
2023/04/02 02:06:27;;;;;;;1.40;1.30;;;;;;;12.54;47.22;98556.56;4992416;28;20036;-77
2023/04/02 02:08:55;;;;;;;1.77;1.40;;;;;;;12.92;47.03;98616.63;4992505;28;20026;-77
2023/04/02 02:11:26;;;;;;;3.47;1.50;;;;;;;12.80;47.08;98605.91;4992402;28;20026;-77
2023/04/02 02:14:16;;;;;;;2.17;1.30;;;;;;;12.85;47.16;98610.56;4992265;28;20040;-77
2023/04/02 02:16:42;;;;;;;1.10;1.00;;;;;;;12.13;47.35;98509.41;4970113;28;20119;-78
2023/04/02 02:19:42;;;;;;;1.45;0.90;;;;;;;12.82;47.33;98616.28;4992373;28;20113;-77
2023/04/02 02:22:30;;;;;;;0.75;0.75;;;;;;;12.78;47.50;98613.25;4992481;28;20029;-77
2023/04/02 02:24:59;;;;;;;1.50;1.08;;;;;;;12.65;47.35;98598.28;4992253;28;20022;-78
2023/04/02 02:27:24;;;;;;;1.23;1.00;;;;;;;12.84;47.46;98624.84;4992866;28;20032;-78
2023/04/02 02:29:59;;;;;;;1.95;1.40;;;;;;;12.87;47.29;98621.75;4992171;28;20097;-78
2023/04/02 02:32:29;;;;;;;1.23;1.02;;;;;;;12.88;47.15;98618.88;4992264;28;20053;-78
2023/04/02 02:35:19;;;;;;;1.17;1.00;;;;;;;12.87;46.97;98627.06;4991733;28;20022;-78
2023/04/02 02:37:51;;;;;;;1.27;1.17;;;;;;;12.21;47.12;98551.50;4991662;28;20060;-78
2023/04/02 02:40:23;;;;;;;;;;;;;;;12.76;47.77;98630.41;4992864;28;20030;-77
2023/04/02 02:42:53;;;;;;;1.08;1.00;;;;;;;12.48;47.01;98556.59;4991960;28;19925;-77
2023/04/02 02:45:25;;;;;;;1.35;1.10;;;;;;;12.81;47.59;98612.00;4991807;28;20085;-77
2023/04/02 02:47:54;;;;;;;1.10;1.00;;;;;;;12.66;46.94;98591.13;4991807;28;20114;-77
2023/04/02 02:50:24;;;;;;;1.27;0.82;;;;;;;12.92;47.11;98628.03;4991902;28;20022;-77
2023/04/02 02:52:53;;;;;;;0.70;0.70;;;;;;;11.90;46.88;98478.19;4991876;28;20491;-77
2023/04/02 02:55:31;;;;;;;1.00;0.75;;;;;;;11.88;46.91;98493.44;4991962;28;20057;-77
2023/04/02 02:58:14;;;;;;;0.93;0.80;;;;;;;12.72;47.28;98632.66;4992092;28;20018;-77
2023/04/02 03:00:41;;;;;;;0.70;0.70;;;;;;;12.69;47.50;98636.53;4991875;28;20046;-77
2023/04/02 03:03:13;;;;;;;0.80;0.80;;;;;;;12.55;47.27;98605.84;4991860;28;20491;-77
2023/04/02 03:05:40;;;;;;;1.00;0.98;;;;;;;11.94;46.86;98519.06;4991817;28;20037;-78
2023/04/02 03:08:20;;;;;;;1.10;1.00;;;;;;;11.68;47.10;98475.00;4990806;28;20058;-77
2023/04/02 03:10:51;;;;;;;1.48;1.25;;;;;;;12.79;47.03;98644.03;4991699;28;20423;-77
2023/04/02 03:13:31;;;;;;;1.63;1.42;;;;;;;12.84;46.73;98657.44;4991829;28;20109;-77
2023/04/02 03:16:02;;;;;;;2.70;1.52;;;;;;;12.89;46.79;98641.72;4991746;28;20045;-77
2023/04/02 03:18:38;;;;;;;2.88;1.73;;;;;;;12.94;46.84;98641.06;4991921;28;20496;-77
2023/04/02 03:21:15;;;;;;;2.90;2.20;;;;;;;12.99;46.77;98642.03;4991674;28;20026;-78
2023/04/02 03:23:44;;;;;;;3.17;1.65;;;;;;;13.03;46.48;98650.38;4991770;28;20057;-78
2023/04/02 03:26:19;;;;;;;3.85;1.77;;;;;;;13.08;46.55;98652.38;4991705;28;20030;-78
2023/04/02 03:28:56;;;;;;;1.92;1.60;;;;;;;12.69;46.86;98615.34;4991573;28;20034;-77
2023/04/02 03:31:26;;;;;;;3.20;2.22;;;;;;;13.00;47.01;98653.44;4991446;28;20161;-77
2023/04/02 03:33:58;;;;;;;3.22;1.63;;;;;;;12.91;47.10;98642.31;4991763;28;20030;-77
2023/04/02 03:36:33;;;;;;;3.20;1.95;;;;;;;12.63;46.94;98608.25;4991689;28;20058;-77
2023/04/02 03:39:26;;;;;;;3.40;1.90;;;;;;;12.92;47.26;98664.31;4991592;28;20495;-78
2023/04/02 03:42:29;;;;;;;7.50;2.30;;;;;;;12.65;47.79;98630.06;4991505;28;20030;-77
2023/04/02 03:45:01;;;;;;;4.38;2.38;;;;;;;12.72;47.91;98638.75;4916615;29;20067;-77
2023/04/02 03:47:41;;;;;;;3.92;2.33;;;;;;;12.82;47.85;98664.78;4969165;28;20422;-77
2023/04/02 03:50:22;;;;;;;2.88;2.05;;;;;;;12.84;48.03;98661.91;4977454;28;20425;-78
2023/04/02 03:52:48;;;;;;;3.65;2.20;;;;;;;11.69;48.33;98483.75;4994998;28;20045;-77
2023/04/02 03:55:18;;;;;;;4.32;2.63;;;;;;;12.86;47.82;98665.16;4994953;28;20030;-77
2023/04/02 03:58:12;;;;;;;5.20;2.28;;;;;;;12.15;47.52;98562.09;4994995;28;20022;-77
2023/04/02 04:01:05;;;;;;;4.53;2.60;;;;;;;12.93;47.65;98671.22;4994532;28;20050;-78
2023/04/02 04:03:30;;;;;;;5.95;3.60;;;;;;;12.94;47.65;98663.06;4994880;28;20112;-77
2023/04/02 04:06:06;;;;;;;7.45;3.90;;;;;;;12.79;47.90;98646.66;4994804;28;20503;-77
2023/04/02 04:08:41;;;;;;;6.22;3.90;;;;;;;12.82;47.76;98643.59;4994846;28;20034;-77
2023/04/02 04:11:12;;;;;;;6.63;3.92;;;;;;;12.98;47.55;98666.91;4994666;28;20027;-77
2023/04/02 04:13:44;;;;;;;3.03;2.30;;;;;;;12.02;47.00;98521.47;4994698;28;20042;-77
2023/04/02 04:16:25;;;;;;;3.28;2.30;;;;;;;12.83;46.62;98636.47;4994710;28;20277;-77
2023/04/02 04:19:02;;;;;;;6.82;3.40;;;;;;;13.05;47.02;98674.81;4994640;28;20041;-77
2023/04/02 04:21:29;;;;;;;7.30;3.08;;;;;;;13.08;47.21;98676.22;4994466;28;20113;-78
2023/04/02 04:24:02;;;;;;;6.85;3.05;;;;;;;13.08;47.08;98684.97;5009426;28;20101;-77
2023/04/02 04:27:02;;;;;;;5.63;4.20;;;;;;;13.08;46.83;98692.94;4994058;28;20026;-77
2023/04/02 04:30:02;;;;;;;8.30;5.18;;;;;;;13.09;46.74;98688.44;4994506;28;20030;-78
2023/04/02 04:32:41;;;;;;;5.75;4.60;;;;;;;13.10;46.77;98688.22;4994222;28;20514;-77
2023/04/02 04:35:22;;;;;;;6.70;4.63;;;;;;;13.11;46.09;98697.00;4994255;28;20035;-77
2023/04/02 04:37:57;;;;;;;6.80;4.20;;;;;;;13.08;46.36;98689.47;4994246;28;20072;-77
2023/04/02 04:40:35;;;;;;;5.78;4.65;;;;;;;13.03;46.03;98679.53;4994062;28;20042;-77
2023/04/02 04:43:05;;;;;;;5.68;4.20;;;;;;;12.27;46.06;98555.13;4994228;28;20105;-77
2023/04/02 04:45:36;;;;;;;6.80;4.85;;;;;;;13.21;46.00;98708.78;4994190;28;20511;-77
2023/04/02 04:48:04;;;;;;;10.82;4.53;;;;;;;13.20;45.73;98691.25;4993969;28;20038;-77
2023/04/02 04:50:47;;;;;;;7.22;5.03;;;;;;;13.18;45.50;98695.94;4993826;28;20069;-77
2023/04/02 04:53:18;;;;;;;7.32;4.45;;;;;;;13.17;45.94;98688.22;4994549;28;20411;-77
2023/04/02 04:55:46;;;;;;;5.57;4.20;;;;;;;13.07;45.95;98677.25;4994041;28;20538;-77
2023/04/02 04:58:20;;;;;;;5.85;4.25;;;;;;;13.19;45.67;98688.81;4993572;28;20022;-77
2023/04/02 05:00:57;;;;;;;3.88;2.88;;;;;;;13.14;45.50;98689.41;4994037;28;20050;-77
2023/04/02 05:03:32;;;;;;;3.55;2.30;;;;;;;12.93;45.42;98656.16;4994014;28;20165;-77
2023/04/02 05:06:05;;;;;;;2.97;2.38;;;;;;;13.11;45.66;98697.00;4994117;28;20037;-78
2023/04/02 05:08:34;;;;;;;2.67;2.47;;;;;;;13.02;45.17;98677.91;4994249;28;20031;-77
2023/04/02 05:11:10;;;;;;;2.40;2.10;;;;;;;13.12;44.98;98675.56;4993564;28;20103;-77
2023/04/02 05:13:38;;;;;;;3.30;2.22;;;;;;;13.08;44.62;98661.13;4993571;28;20022;-77
2023/04/02 05:16:20;;;;;;;4.88;2.92;;;;;;;13.36;44.54;98703.16;4993508;28;20048;-77
2023/04/02 05:18:55;;;;;;;6.50;4.18;;;;;;;13.47;44.45;98707.78;4993491;28;20026;-77
2023/04/02 05:21:27;;;;;;;4.45;3.67;;;;;;;13.23;44.15;98652.88;4993467;28;20442;-77
2023/04/02 05:24:44;;;;;;;4.15;3.00;;;;;;;13.64;43.92;98702.72;4993242;28;20057;-77
2023/04/02 05:27:19;;;;;;;3.88;3.17;;;;;;;13.74;44.00;98710.19;4960410;28;20105;-78
2023/04/02 05:29:48;;;;;;;4.30;2.90;;;;;;;13.83;43.81;98703.56;4993269;28;20026;-78
2023/04/02 05:32:21;;;;;;;5.90;3.20;;;;;;;12.79;43.47;98530.13;4993274;28;20418;-77
2023/04/02 05:34:53;;;;;;;6.22;3.47;;;;;;;13.58;43.42;98651.38;4993337;28;20081;-78
2023/04/02 05:37:22;;;;;;;5.07;3.45;;;;;;;14.00;43.42;98701.97;4993213;28;20034;-78
2023/04/02 05:39:57;;;;;;;4.03;2.50;;;;;;;13.94;42.94;98689.56;4992995;28;20103;-78
2023/04/02 05:42:26;;;;;;;5.28;3.40;;;;;;;14.07;43.03;98715.97;4993118;28;20105;-77
2023/04/02 05:45:17;;;;;;;4.22;2.75;;;;;;;13.72;42.87;98649.41;4992972;28;20041;-77
2023/04/02 05:47:45;;;;;;;3.70;2.70;;;;;;;13.48;43.04;98603.34;4992406;28;20042;-77
2023/04/02 05:50:25;;;;;;;4.05;2.40;;;;;;;13.69;42.40;98625.97;4993173;28;20057;-77
2023/04/02 05:53:01;;;;;;;4.63;2.65;;;;;;;13.66;42.46;98623.75;4993257;28;20089;-77
2023/04/02 05:55:36;;;;;;;5.22;2.60;;;;;;;13.74;42.65;98610.19;4992713;28;20027;-77
2023/04/02 05:58:25;;;;;;;3.08;2.10;;;;;;;14.42;42.67;98723.38;4992795;28;20031;-78
2023/04/02 06:01:02;;;;;;;2.90;2.00;;;;;;;13.95;42.63;98640.78;4992298;28;20121;-77
2023/04/02 06:03:45;;;;;;;5.25;2.38;;;;;;;14.57;42.26;98721.16;4992550;28;20101;-77
2023/04/02 06:06:20;;;;;;;;;;;;;;;14.51;42.63;98716.75;4992934;28;20415;-77
2023/04/02 06:08:57;;;;;;;5.47;4.00;;;;;;;14.33;42.57;98677.72;4991501;28;20001;-77
2023/04/02 06:11:47;;;;;;;5.78;4.00;;;;;;;14.65;42.46;98738.66;4992348;28;20034;-77
2023/04/02 06:14:14;;;;;;;6.28;4.10;;;;;;;14.71;42.54;98721.81;4992161;28;20032;-78
2023/04/02 06:16:42;;;;;;;3.60;3.22;;;;;;;14.77;42.37;98720.91;4992461;28;20109;-77
2023/04/02 06:19:16;;;;;;;4.68;3.72;;;;;;;14.80;42.05;98723.94;4992370;28;20096;-77
2023/04/02 06:21:48;;;;;;;8.80;4.53;;;;;;;14.86;42.24;98724.88;4992358;28;20101;-77
2023/04/02 06:24:19;;;;;;;4.50;3.70;;;;;;;13.94;42.04;98578.94;4992292;28;20526;-77
2023/04/02 06:26:57;;;;;;;6.03;3.65;;;;;;;14.90;42.13;98732.22;4990919;28;20027;-77
2023/04/02 06:29:27;;;;;;;6.30;4.03;;;;;;;14.84;42.17;98725.09;4992365;28;20035;-77
2023/04/02 06:31:57;;;;;;;4.22;3.15;;;;;;;14.60;42.06;98688.84;4992410;28;20096;-77
2023/04/02 06:34:25;;;;;;;5.15;2.40;;;;;;;14.85;41.70;98736.53;4992184;28;20034;-77
2023/04/02 06:36:56;;;;;;;3.03;2.13;;;;;;;14.83;41.46;98735.97;4992322;28;20018;-78
2023/04/02 06:39:23;;;;;;;4.03;1.80;;;;;;;14.81;41.14;98744.16;4990678;28;20467;-78
2023/04/02 06:42:02;;;;;;;3.97;2.08;;;;;;;13.70;41.00;98568.41;4991841;28;20116;-77
2023/04/02 06:44:33;;;;;;;3.42;2.17;;;;;;;14.59;40.91;98703.16;4974472;28;20397;-77
2023/04/02 06:47:04;;;;;;;2.75;2.10;;;;;;;14.76;40.96;98716.63;4991847;28;20034;-77
2023/04/02 06:49:33;;;;;;;2.70;1.77;;;;;;;15.05;41.00;98758.38;5006868;28;20027;-77
2023/04/02 06:52:02;;;;;;;1.75;1.60;;;;;;;15.12;40.72;98756.44;4991742;28;20030;-77
2023/04/02 06:54:27;;;;;;;1.95;1.48;;;;;;;14.39;40.76;98634.34;4991786;28;20100;-77
2023/04/02 06:56:55;;;;;;;1.25;1.10;;;;;;;15.15;40.37;98749.84;4990509;28;20484;-77
2023/04/02 06:59:20;;;;;;;1.90;1.60;;;;;;;15.35;40.13;98760.19;4991526;28;20030;-77
2023/04/02 07:02:08;;;;;;;2.75;1.45;;;;;;;15.42;39.72;98763.56;4991706;28;20023;-77
2023/04/02 07:04:34;;;;;;;2.15;1.23;;;;;;;14.74;39.42;98652.28;4991466;28;20392;-77
2023/04/02 07:06:59;;;;;;;1.95;1.02;;;;;;;15.61;39.28;98762.50;4991773;28;20022;-77
2023/04/02 07:09:25;;;;;;;1.13;0.60;;;;;;;15.74;38.52;98770.28;4991998;28;20026;-77
2023/04/02 07:11:50;;;;;;;0.80;0.80;;;;;;;15.42;38.31;98703.19;4974489;28;20035;-78
2023/04/02 07:14:16;;;;;;;0.85;0.60;;;;;;;14.80;38.25;98595.56;4991807;28;20031;-77
2023/04/02 07:16:43;;;;;;;1.25;0.80;;;;;;;15.16;38.03;98629.97;4974289;28;20014;-77
2023/04/02 07:19:19;;;;;;;2.55;0.65;;;;;;;15.49;36.78;98669.31;4991937;28;20578;-77
2023/04/02 07:21:45;;;;;;;0.60;0.50;;;;;;;16.14;37.27;98754.41;4995673;28;20022;-77
2023/04/02 07:24:10;;;;;;;2.28;0.77;;;;;;;15.88;36.90;98723.75;4995669;28;20105;-77
2023/04/02 07:26:36;;;;;;;1.27;0.70;;;;;;;16.10;36.86;98768.41;4995771;28;20551;-77
2023/04/02 07:29:01;;;;;;;1.08;0.70;;;;;;;15.27;37.22;98617.72;4995745;28;20022;-77
2023/04/02 07:31:27;;;;;;;0.70;0.55;;;;;;;16.26;37.22;98766.91;5010294;28;20472;-77
2023/04/02 07:33:58;;;;;;;1.55;0.70;;;;;;;15.92;36.87;98718.78;4995519;28;20049;-77
2023/04/02 07:36:25;;;;;;;3.08;1.23;;;;;;;16.10;36.95;98766.56;4996036;28;20022;-78
2023/04/02 07:38:51;;;;;;;1.20;0.80;;;;;;;16.17;36.74;98780.56;4996047;28;20561;-78
2023/04/02 07:41:18;;;;;;;1.73;1.00;;;;;;;16.08;36.95;98770.50;4995586;28;20026;-77
2023/04/02 07:43:44;;;;;;;1.15;0.90;;;;;;;16.09;37.23;98767.59;4995332;28;20073;-78
2023/04/02 07:46:12;;;;;;;1.70;1.10;;;;;;;16.00;37.17;98738.91;4995198;28;20034;-78
2023/04/02 07:48:39;;;;;;;1.90;0.80;;;;;;;16.28;37.05;98789.59;4995348;28;20034;-78
2023/04/02 07:51:13;;;;;;;1.58;1.00;;;;;;;15.20;36.85;98609.84;4995254;28;20038;-77
2023/04/02 07:53:38;;;;;;;1.38;0.90;;;;;;;16.19;36.98;98783.81;4995278;28;20030;-77
2023/04/02 07:56:04;;;;;;;2.85;0.82;;;;;;;15.42;36.66;98668.63;4995222;28;20026;-77
2023/04/02 07:58:31;;;;;;;1.65;0.70;;;;;;;15.79;36.62;98719.81;4995221;28;20408;-77
2023/04/02 08:00:57;;;;;;;2.22;1.00;;;;;;;15.60;36.26;98683.69;4994720;28;20050;-77
2023/04/02 08:03:23;;;;;;;0.95;0.75;;;;;;;16.27;36.69;98795.97;4993515;28;20026;-77
2023/04/02 08:05:53;;;;;;;1.85;0.80;;;;;;;16.32;36.60;98785.41;4994729;28;20029;-77
2023/04/02 08:08:20;;;;;;;1.40;1.05;;;;;;;16.43;36.86;98789.97;4994760;28;20030;-77
2023/04/02 08:10:46;;;;;;;1.70;0.95;;;;;;;15.89;36.64;98688.09;4993507;28;20034;-77
2023/04/02 08:13:12;;;;;;;1.77;1.00;;;;;;;16.46;36.28;98775.34;4994970;28;20030;-77
2023/04/02 08:15:38;;;;;;;1.85;1.30;;;;;;;16.42;36.28;98772.34;4994619;28;20036;-77
2023/04/02 08:18:03;;;;;;;1.55;0.98;;;;;;;16.41;36.32;98768.06;4994685;28;20507;-77
2023/04/02 08:20:29;;;;;;;1.60;1.05;;;;;;;15.75;36.32;98641.47;4994563;28;20038;-77
2023/04/02 08:22:55;;;;;;;2.13;1.10;;;;;;;16.32;36.05;98724.16;4994479;28;20034;-77
2023/04/02 08:25:20;;;;;;;0.88;0.70;;;;;;;16.34;36.14;98735.38;4994949;28;20100;-77
2023/04/02 08:27:47;;;;;;;1.05;0.90;;;;;;;16.57;36.19;98758.53;4995984;28;20037;-77
2023/04/02 08:30:13;;;;;;;3.03;1.20;;;;;;;16.71;35.99;98781.22;4994789;28;20777;-77
2023/04/02 08:32:40;;;;;;;1.85;1.13;;;;;;;16.00;36.11;98662.50;4993755;28;20080;-77
2023/04/02 08:35:07;;;;;;;1.10;1.00;;;;;;;16.08;36.10;98658.66;4994728;28;20032;-78
2023/04/02 08:37:32;;;;;;;0.65;0.63;;;;;;;16.76;36.06;98753.88;4994607;28;20082;-78
2023/04/02 08:39:58;;;;;;;1.35;0.85;;;;;;;16.10;35.68;98628.09;4994847;28;20062;-78
2023/04/02 08:42:45;;;;;;;1.33;1.02;;;;;;;17.11;35.95;98781.22;4994578;28;20030;-77
2023/04/02 08:45:34;;;;;;;1.65;1.20;;;;;;;17.10;35.08;98779.63;4993945;28;20084;-77
2023/04/02 08:48:01;;;;;;;2.28;1.00;;;;;;;17.05;35.17;98755.47;4976362;28;20061;-77
2023/04/02 08:50:36;;;;;;;1.33;1.10;;;;;;;17.07;34.64;98740.06;4993863;28;20470;-77
2023/04/02 08:53:05;;;;;;;1.50;0.82;;;;;;;17.21;34.72;98767.28;4993796;28;20037;-77
2023/04/02 08:55:46;;;;;;;1.55;0.80;;;;;;;17.46;33.56;98781.06;4993966;28;20030;-77
2023/04/02 08:58:24;;;;;;;1.42;0.60;;;;;;;17.54;34.04;98785.19;4994061;28;20092;-77
2023/04/02 09:00:53;;;;;;;1.88;1.23;;;;;;;16.81;34.16;98664.13;4993701;28;20507;-77
2023/04/02 09:03:28;;;;;;;3.60;1.48;;;;;;;17.23;33.63;98692.34;4993845;28;20053;-77
2023/04/02 09:05:55;;;;;;;0.82;0.63;;;;;;;17.85;34.10;98789.22;4993783;28;20029;-77
2023/04/02 09:08:24;;;;;;;1.33;1.02;;;;;;;17.38;33.75;98697.91;4993693;28;20069;-77
2023/04/02 09:11:09;;;;;;;1.27;0.80;;;;;;;17.97;33.67;98763.22;4993766;28;20053;-77
2023/04/02 09:13:43;;;;;;;1.85;0.80;;;;;;;18.29;33.55;98778.63;4993030;28;20588;-77
2023/04/02 09:16:21;;;;;;;1.63;1.15;;;;;;;18.12;33.46;98719.88;4993491;28;20443;-77
2023/04/02 09:18:49;;;;;;;3.63;0.90;;;;;;;18.52;33.06;98765.03;4993526;28;20034;-77
2023/04/02 09:21:20;;;;;;;0.85;0.43;;;;;;;18.82;32.04;98777.22;4976440;28;20037;-77
2023/04/02 09:23:47;;;;;;;1.77;0.73;;;;;;;18.30;32.51;98663.47;4993546;28;20022;-77
2023/04/02 09:26:23;;;;;;;1.20;0.70;;;;;;;19.27;32.00;98766.97;4993427;28;20470;-77
2023/04/02 09:28:51;;;;;;;1.45;0.80;;;;;;;19.21;31.37;98740.44;4993246;28;20037;-77
2023/04/02 09:31:19;;;;;;;1.48;0.82;;;;;;;19.54;31.05;98758.19;4992920;28;20041;-77
2023/04/02 09:33:47;;;;;;;0.60;0.50;;;;;;;19.60;30.81;98759.84;4991772;28;20030;-77
2023/04/02 09:36:33;;;;;;;0.80;0.60;;;;;;;19.56;29.22;98748.81;4993231;28;20495;-77
2023/04/02 09:39:19;;;;;;;0.98;0.60;;;;;;;19.18;30.00;98676.72;4993149;28;20105;-77
2023/04/02 09:41:45;;;;;;;0.95;0.60;;;;;;;19.64;30.64;98750.22;4992629;28;20133;-77
2023/04/02 09:44:11;;;;;;;2.45;1.17;;;;;;;19.89;30.72;98747.72;4992734;28;20041;-78
2023/04/02 09:46:36;;;;;;;1.33;0.93;;;;;;;20.03;30.21;98753.44;4992598;28;20030;-78
2023/04/02 09:49:01;;;;;;;0.55;0.50;;;;;;;19.99;30.07;98725.56;4992890;28;20030;-77
2023/04/02 09:51:33;;;;;;;0.55;0.50;;;;;;;20.33;30.10;98766.25;4992863;28;20483;-77
2023/04/02 09:54:01;;;;;;;0.93;0.55;;;;;;;20.50;29.50;98739.25;4990280;28;20053;-78
2023/04/02 09:56:29;;;;;;;1.17;0.57;;;;;;;20.22;29.32;98687.66;4992809;28;20033;-78
2023/04/02 09:59:24;;;;;;;0.93;0.60;;;;;;;20.64;26.88;98740.41;4992776;28;20487;-78
2023/04/02 10:01:52;;;;;;;1.30;0.82;;;;;;;20.78;27.39;98748.75;4980043;28;20507;-77
2023/04/02 10:04:38;;;;;;;1.33;1.00;;;;;;;20.93;27.67;98757.69;4992539;28;20034;-77
2023/04/02 10:07:05;;;;;;;2.05;1.00;;;;;;;21.05;27.61;98744.03;4992431;28;20030;-77
2023/04/02 10:09:36;;;;;;;1.33;0.90;;;;;;;20.93;26.41;98719.31;4992541;28;20022;-77
2023/04/02 10:12:05;;;;;;;0.93;0.82;;;;;;;21.41;26.86;98755.63;5007446;28;20462;-77
2023/04/02 10:14:45;;;;;;;0.90;0.73;;;;;;;21.27;26.92;98729.59;4992665;28;20030;-77
2023/04/02 10:17:16;;;;;;;0.50;0.50;;;;;;;20.45;26.54;98632.78;4992440;28;20407;-77
2023/04/02 10:19:54;;;;;;;0.95;0.50;;;;;;;20.94;26.61;98711.00;4991128;28;20109;-77
2023/04/02 10:22:21;;;;;;;0.73;0.50;;;;;;;20.06;27.05;98610.91;4992423;28;20034;-77
2023/04/02 10:24:48;;;;;;;0.40;0.38;;;;;;;20.60;27.50;98745.47;4992346;28;20028;-77
2023/04/02 10:27:36;;;;;;;0.70;0.47;;;;;;;20.36;27.11;98725.50;4992530;28;20030;-77
2023/04/02 10:30:08;;;;;;;0.85;0.63;;;;;;;20.30;27.76;98731.91;4992293;28;20029;-77
2023/04/02 10:33:04;;;;;;;0.70;0.70;;;;;;;20.33;25.77;98735.94;4992164;28;20547;-77
2023/04/02 10:35:47;;;;;;;3.92;0.80;;;;;;;20.69;27.04;98729.69;4990775;28;20045;-77
2023/04/02 10:38:43;;;;;;;0.80;0.57;;;;;;;21.34;25.87;98727.44;4992026;28;20044;-77
2023/04/02 10:41:17;;;;;;;1.75;1.27;;;;;;;21.56;25.55;98693.09;4990875;28;20054;-78
2023/04/02 10:43:53;;;;;;;0.55;0.55;;;;;;;22.17;23.98;98738.69;4991983;28;20120;-78
2023/04/02 10:46:31;;;;;;;2.08;1.10;;;;;;;22.59;24.72;98741.00;4991926;28;20551;-78
2023/04/02 10:49:10;;;;;;;1.75;0.65;;;;;;;22.91;23.86;98729.03;4991960;28;20070;-78
2023/04/02 10:52:20;;;;;;;1.73;0.90;;;;;;;23.00;23.86;98730.03;4992028;28;20022;-78
2023/04/02 10:54:59;;;;;;;2.60;1.40;;;;;;;22.62;23.28;98605.91;4961514;28;20068;-78
2023/04/02 10:57:32;;;;;;;0.55;0.50;;;;;;;23.68;23.21;98719.34;4998541;28;20138;-78
2023/04/02 11:00:10;;;;;;;1.20;0.60;;;;;;;24.09;21.44;98708.97;4998413;28;20046;-78
2023/04/02 11:02:47;;;;;;;1.58;0.60;;;;;;;23.14;21.87;98578.38;4998603;28;20022;-78
2023/04/02 11:05:39;;;;;;;1.30;1.20;;;;;;;23.20;21.98;98573.75;4998482;28;20057;-78
2023/04/02 11:08:22;;;;;;;1.25;0.98;;;;;;;24.19;23.18;98703.47;4997002;28;20466;-78
2023/04/02 11:11:09;;;;;;;1.05;0.70;;;;;;;24.32;22.40;98704.69;5013297;28;20053;-78
2023/04/02 11:13:49;;;;;;;0.60;0.50;;;;;;;23.83;22.91;98587.13;4996989;28;20034;-78
2023/04/02 11:16:15;;;;;;;2.05;1.17;;;;;;;23.60;22.78;98515.16;4998738;28;20046;-78
2023/04/02 11:18:40;;;;;;;2.60;1.95;;;;;;;24.50;22.56;98636.47;4998249;28;20053;-78
2023/04/02 11:21:26;;;;;;;1.20;1.10;;;;;;;25.04;22.06;98700.00;4998823;28;20026;-78
2023/04/02 11:24:00;;;;;;;0.85;0.82;;;;;;;25.23;21.69;98689.16;4988214;28;20035;-78
2023/04/02 11:26:33;;;;;;;1.23;0.55;;;;;;;25.33;21.81;98695.25;4998206;28;20113;-78
2023/04/02 11:29:17;;;;;;;1.98;1.77;;;;;;;24.83;21.42;98633.88;4994449;28;20030;-78
2023/04/02 11:31:43;;;;;;;1.50;0.70;;;;;;;25.27;21.55;98676.72;4993564;28;20018;-78
2023/04/02 11:34:40;;;;;;;0.50;0.50;;;;;;;25.42;20.37;98659.44;4996773;28;20081;-78
2023/04/02 11:37:30;;;;;;;0.75;0.32;;;;;;;25.63;21.33;98693.13;4998022;28;20066;-78
2023/04/02 11:40:10;;;;;;;0.65;0.43;;;;;;;25.25;21.03;98644.56;4996056;28;20060;-78
2023/04/02 11:42:39;;;;;;;1.50;0.93;;;;;;;25.57;21.63;98667.28;4996518;28;20094;-78
2023/04/02 11:45:22;;;;;;;0.90;0.55;;;;;;;25.90;21.08;98685.09;4997347;28;20026;-78
2023/04/02 11:48:06;;;;;;;0.95;0.60;;;;;;;25.95;20.50;98668.75;4996058;28;20096;-78
2023/04/02 11:50:40;;;;;;;0.40;0.40;;;;;;;25.81;21.44;98667.94;5011313;28;20022;-78
2023/04/02 11:53:11;;;;;;;0.70;0.50;;;;;;;25.97;21.19;98666.56;4995902;28;20026;-78
2023/04/02 11:55:37;;;;;;;2.00;1.40;;;;;;;25.95;21.15;98628.19;4996491;28;20026;-78
2023/04/02 11:58:08;;;;;;;1.42;1.23;;;;;;;26.26;20.43;98660.88;4996750;28;20428;-78
2023/04/02 12:00:37;;;;;;;2.50;1.13;;;;;;;26.29;21.20;98654.03;4997188;28;20149;-78
2023/04/02 12:03:24;;;;;;;1.77;1.00;;;;;;;26.46;20.55;98656.16;4997804;28;20128;-78
2023/04/02 12:06:17;;;;;;;0.68;0.40;;;;;;;26.47;20.31;98657.75;4997221;28;20090;-78